La Malbaie, Canada
Current Conditions -  °F | °C
As of 4:00 AM on Sunday 26 Oct 2014 (Local Time) from CYBG Reporting Station
Rain Showers Rain Showers  
Wind Chill: 32°   Ceiling: 3000
Heat Index: 39°   Visibility: 15mi
Dew Point: 37°   Wind: 12mph
Humidity: 93%   Direction: 90°E
Pressure: 29.36"   Gusts: NA
Location:  47.66°N, 70.15°W
Report Text: CYBG 260800Z 09010KT 15SM -SHRA FEW008 OVC030 04/03 A2936 RMK SF1SC8 SLP947
Loading
Personal Weather Stations






























Interactive Weather Map
Tropical Storm Tracking
New forecast layout! Learn more

10-Day Weather Forecast

Advertisements
Track Severe Weather on mobile